createdAt,value
2022-11-06T00:01:00.107Z,16.70
2022-11-06T00:03:28.688Z,16.03
2022-11-06T00:06:14.947Z,15.43
2022-11-06T00:08:44.863Z,16.87
2022-11-06T00:11:14.985Z,15.60
2022-11-06T00:13:44.716Z,15.10
2022-11-06T00:16:14.905Z,14.77
2022-11-06T00:18:44.038Z,15.47
2022-11-06T00:21:14.766Z,14.83
2022-11-06T00:23:45.185Z,14.53
2022-11-06T00:26:17.032Z,13.80
2022-11-06T00:28:45.972Z,13.63
2022-11-06T00:31:17.317Z,14.27
2022-11-06T00:33:46.203Z,12.13
2022-11-06T00:36:16.830Z,12.63
2022-11-06T00:38:47.323Z,12.23
2022-11-06T00:41:17.340Z,12.80
2022-11-06T00:43:50.618Z,13.97
2022-11-06T00:46:19.988Z,13.47
2022-11-06T00:48:50.063Z,15.23
2022-11-06T00:51:20.397Z,12.90
2022-11-06T00:53:54.221Z,13.80
2022-11-06T00:56:23.144Z,14.80
2022-11-06T00:58:51.666Z,12.00
2022-11-06T01:01:22.574Z,12.80
2022-11-06T01:03:55.904Z,11.50
2022-11-06T01:06:28.792Z,12.77
2022-11-06T01:09:00.803Z,12.43
2022-11-06T01:11:46.534Z,12.53
2022-11-06T01:14:23.397Z,10.83
2022-11-06T01:16:52.589Z,12.00
2022-11-06T01:19:22.560Z,14.27
2022-11-06T01:21:53.905Z,13.03
2022-11-06T01:24:25.300Z,13.37
2022-11-06T01:27:24.325Z,13.27
2022-11-06T01:29:43.016Z,11.13
2022-11-06T01:32:11.498Z,12.73
2022-11-06T01:34:41.937Z,11.13
2022-11-06T01:37:14.480Z,13.47
2022-11-06T01:39:45.176Z,15.10
2022-11-06T01:42:16.329Z,10.10
2022-11-06T01:45:30.718Z,10.57
2022-11-06T01:48:01.702Z,9.90
2022-11-06T01:50:30.536Z,10.67
2022-11-06T01:53:02.430Z,11.30
2022-11-06T01:55:39.509Z,10.60
2022-11-06T01:58:11.882Z,10.43
2022-11-06T02:00:41.509Z,8.60
2022-11-06T02:03:12.747Z,9.60
2022-11-06T02:05:42.342Z,9.27
2022-11-06T02:08:15.055Z,9.13
2022-11-06T02:10:46.705Z,9.70
2022-11-06T02:13:22.763Z,9.63
2022-11-06T02:15:55.758Z,9.77
2022-11-06T02:18:38.243Z,8.60
2022-11-06T02:21:32.198Z,10.53
2022-11-06T02:24:25.510Z,9.53
2022-11-06T02:27:05.969Z,9.63
2022-11-06T02:29:39.484Z,9.13
2022-11-06T02:32:11.860Z,8.90
2022-11-06T02:34:42.498Z,9.33
2022-11-06T02:37:16.550Z,8.80
2022-11-06T02:39:48.135Z,9.30
2022-11-06T02:42:21.359Z,10.30
2022-11-06T02:44:53.903Z,8.40
2022-11-06T02:47:24.499Z,10.07
2022-11-06T02:49:56.869Z,8.83
2022-11-06T02:52:29.358Z,9.50
2022-11-06T02:55:12.495Z,9.57
2022-11-06T02:57:46.372Z,9.80
2022-11-06T03:00:17.500Z,9.10
2022-11-06T03:02:51.410Z,9.83
2022-11-06T03:05:24.794Z,10.30
2022-11-06T03:07:58.139Z,10.80
2022-11-06T03:10:31.781Z,10.07
2022-11-06T03:13:08.784Z,9.07
2022-11-06T03:15:44.263Z,9.30
2022-11-06T03:18:16.485Z,9.13
2022-11-06T03:20:57.098Z,8.13
2022-11-06T03:23:33.238Z,9.10
2022-11-06T03:26:11.802Z,9.93
2022-11-06T03:28:47.861Z,8.47
2022-11-06T03:31:21.708Z,8.40
2022-11-06T03:33:54.486Z,8.83
2022-11-06T03:36:27.492Z,8.87
2022-11-06T03:39:00.360Z,9.07
2022-11-06T03:41:34.368Z,10.70
2022-11-06T03:44:08.075Z,9.37
2022-11-06T03:46:39.996Z,10.57
2022-11-06T03:49:12.139Z,9.67
2022-11-06T03:51:45.941Z,9.50
2022-11-06T03:54:18.527Z,9.23
2022-11-06T03:56:51.904Z,9.50
2022-11-06T03:59:25.296Z,10.20
2022-11-06T04:01:58.647Z,10.83
2022-11-06T04:04:32.122Z,9.20
2022-11-06T04:07:06.743Z,9.13
2022-11-06T04:09:56.297Z,10.20
2022-11-06T04:12:44.341Z,10.40
2022-11-06T04:15:19.139Z,9.10
2022-11-06T04:17:47.659Z,9.20
2022-11-06T04:20:34.850Z,10.20
2022-11-06T04:23:14.722Z,8.47
2022-11-06T04:26:15.690Z,9.83
2022-11-06T04:28:50.365Z,8.40
2022-11-06T04:31:27.357Z,8.80
2022-11-06T04:34:02.787Z,8.50
2022-11-06T04:36:40.999Z,8.90
2022-11-06T04:39:19.961Z,7.73
2022-11-06T04:41:54.648Z,7.10
2022-11-06T04:44:30.892Z,7.63
2022-11-06T04:47:05.136Z,7.90
2022-11-06T04:49:36.451Z,7.90
2022-11-06T04:52:08.901Z,7.20
2022-11-06T04:54:37.543Z,9.97
2022-11-06T04:57:06.684Z,10.00
2022-11-06T04:59:37.324Z,7.70
2022-11-06T05:02:08.411Z,9.10
2022-11-06T05:04:36.984Z,10.20
2022-11-06T05:07:05.517Z,9.10
2022-11-06T05:09:34.232Z,8.57
2022-11-06T05:12:02.818Z,7.97
2022-11-06T05:14:32.619Z,9.03
2022-11-06T05:17:01.398Z,7.80
2022-11-06T05:19:31.206Z,8.20
2022-11-06T05:22:17.012Z,9.67
2022-11-06T05:24:45.607Z,9.47
2022-11-06T05:27:14.441Z,8.90
2022-11-06T05:29:43.201Z,9.17
2022-11-06T05:32:11.843Z,8.40
2022-11-06T05:34:42.553Z,8.20
2022-11-06T05:37:11.568Z,7.73
2022-11-06T05:39:42.013Z,8.33
2022-11-06T05:42:11.497Z,8.80
2022-11-06T05:44:46.176Z,8.83
2022-11-06T05:47:19.213Z,9.80
2022-11-06T05:49:50.607Z,8.07
2022-11-06T05:52:22.484Z,9.73
2022-11-06T05:54:53.594Z,7.40
2022-11-06T05:57:29.385Z,7.07
2022-11-06T06:00:01.604Z,8.97
2022-11-06T06:02:32.511Z,7.90
2022-11-06T06:05:09.767Z,7.53
2022-11-06T06:07:49.275Z,7.70
2022-11-06T06:10:25.704Z,8.70
2022-11-06T06:12:55.432Z,8.00
2022-11-06T06:15:41.203Z,8.57
2022-11-06T06:18:12.663Z,8.20
2022-11-06T06:20:46.190Z,8.67
2022-11-06T06:23:21.027Z,7.10
2022-11-06T06:25:51.827Z,7.77
2022-11-06T06:28:21.875Z,7.77
2022-11-06T06:30:51.054Z,7.80
2022-11-06T06:33:20.484Z,6.47
2022-11-06T06:35:55.885Z,6.60
2022-11-06T06:38:26.044Z,6.70
2022-11-06T06:40:56.296Z,6.73
2022-11-06T06:43:26.930Z,7.70
2022-11-06T06:46:01.145Z,8.27
2022-11-06T06:48:32.145Z,9.60
2022-11-06T06:51:03.235Z,8.20
2022-11-06T06:53:32.206Z,8.73
2022-11-06T06:56:01.798Z,12.30
2022-11-06T06:58:31.093Z,13.00
2022-11-06T07:01:02.215Z,12.37
2022-11-06T07:03:35.811Z,9.97
2022-11-06T07:06:12.282Z,10.10
2022-11-06T07:08:41.158Z,8.97
2022-11-06T07:11:11.910Z,8.10
2022-11-06T07:13:41.844Z,8.70
2022-11-06T07:16:12.509Z,9.77
2022-11-06T07:18:42.148Z,17.90
2022-11-06T07:21:14.239Z,23.57
2022-11-06T07:23:42.927Z,27.67
2022-11-06T07:26:11.493Z,32.40
2022-11-06T07:28:39.968Z,30.53
2022-11-06T07:31:12.391Z,24.13
2022-11-06T07:33:41.066Z,18.40
2022-11-06T07:36:13.419Z,17.57
2022-11-06T07:38:43.450Z,17.60
2022-11-06T07:41:13.457Z,14.73
2022-11-06T07:43:42.902Z,17.27
2022-11-06T07:46:13.511Z,13.17
2022-11-06T07:48:42.012Z,17.80
2022-11-06T07:51:12.999Z,16.57
2022-11-06T07:53:42.318Z,15.43
2022-11-06T07:56:10.907Z,15.70
2022-11-06T07:58:39.855Z,15.97
2022-11-06T08:01:18.208Z,18.70
2022-11-06T08:03:47.446Z,15.33
2022-11-06T08:06:17.354Z,16.20
2022-11-06T08:08:45.884Z,15.93
2022-11-06T08:11:15.478Z,16.67
2022-11-06T08:13:44.213Z,16.23
2022-11-06T08:16:14.570Z,18.50
2022-11-06T08:18:43.535Z,17.23
2022-11-06T08:21:16.625Z,18.30
2022-11-06T08:23:54.751Z,17.33
2022-11-06T08:26:24.300Z,18.33
2022-11-06T08:29:00.625Z,15.87
2022-11-06T08:31:35.255Z,18.70
2022-11-06T08:34:04.861Z,18.40
2022-11-06T08:36:37.021Z,17.50
2022-11-06T08:39:22.917Z,16.20
2022-11-06T08:42:04.842Z,14.50
2022-11-06T08:44:37.250Z,15.23
2022-11-06T08:47:08.041Z,14.60
2022-11-06T08:49:43.870Z,15.33
2022-11-06T08:52:15.365Z,15.07
2022-11-06T08:54:49.902Z,15.30
2022-11-06T08:57:32.006Z,16.00
2022-11-06T09:00:00.952Z,14.13
2022-11-06T09:02:29.976Z,14.00
2022-11-06T09:05:02.196Z,16.40
2022-11-06T09:07:33.777Z,15.60
2022-11-06T09:10:07.260Z,14.17
2022-11-06T09:12:38.766Z,17.63
2022-11-06T09:15:08.173Z,14.77
2022-11-06T09:17:42.957Z,15.03
2022-11-06T09:20:12.390Z,13.10
2022-11-06T09:22:41.121Z,13.53
2022-11-06T09:25:12.024Z,12.37
2022-11-06T09:27:45.535Z,12.83
2022-11-06T09:30:16.286Z,12.40
2022-11-06T09:32:49.521Z,12.37
2022-11-06T09:35:18.893Z,12.70
2022-11-06T09:37:47.765Z,12.57
2022-11-06T09:40:26.416Z,11.50
2022-11-06T09:43:05.073Z,12.43
2022-11-06T09:45:36.766Z,12.27
2022-11-06T09:48:14.815Z,12.50
2022-11-06T09:50:52.749Z,13.73
2022-11-06T09:53:34.036Z,11.47
2022-11-06T09:56:06.772Z,13.13
2022-11-06T09:58:44.280Z,11.73
2022-11-06T10:01:24.501Z,10.40
2022-11-06T10:03:58.185Z,11.30
2022-11-06T10:06:28.676Z,11.10
2022-11-06T10:09:01.316Z,10.60
2022-11-06T10:11:53.200Z,9.90
2022-11-06T10:14:32.632Z,10.53
2022-11-06T10:17:12.172Z,10.10
2022-11-06T10:19:46.142Z,9.70
2022-11-06T10:22:18.356Z,9.60
2022-11-06T10:24:51.457Z,11.00
2022-11-06T10:27:28.738Z,8.27
2022-11-06T10:30:11.940Z,8.90
2022-11-06T10:33:07.838Z,7.87
2022-11-06T10:35:41.347Z,8.80
2022-11-06T10:38:15.160Z,8.80
2022-11-06T10:40:49.542Z,7.40
2022-11-06T10:43:28.640Z,8.33
2022-11-06T10:46:05.746Z,8.33
2022-11-06T10:48:41.563Z,7.20
2022-11-06T10:51:37.715Z,6.73
2022-11-06T10:54:19.532Z,7.60
2022-11-06T10:57:02.836Z,6.97
2022-11-06T10:59:33.627Z,5.40
2022-11-06T11:02:03.572Z,5.80
2022-11-06T11:04:33.484Z,5.93
2022-11-06T11:07:18.751Z,5.90
2022-11-06T11:09:51.064Z,5.00
2022-11-06T11:12:40.762Z,5.63
2022-11-06T11:15:20.024Z,5.60
2022-11-06T11:18:18.102Z,4.60
2022-11-06T11:20:48.137Z,5.60
2022-11-06T11:23:19.429Z,5.30
2022-11-06T11:25:51.957Z,6.20
2022-11-06T11:28:33.213Z,9.03
2022-11-06T11:31:12.413Z,5.90
2022-11-06T11:33:42.549Z,4.47
2022-11-06T11:36:12.571Z,3.63
2022-11-06T11:38:43.398Z,8.37
2022-11-06T11:41:15.391Z,3.70
2022-11-06T11:43:44.618Z,3.63
2022-11-06T11:46:22.220Z,3.70
2022-11-06T11:48:52.638Z,2.90
2022-11-06T11:51:32.685Z,2.97
2022-11-06T11:54:07.506Z,3.77
2022-11-06T11:57:04.180Z,3.60
2022-11-06T11:59:38.421Z,3.07
2022-11-06T12:02:23.640Z,3.47
2022-11-06T12:05:02.054Z,2.90
2022-11-06T12:07:33.204Z,2.53
2022-11-06T12:10:02.922Z,2.37
2022-11-06T12:12:36.570Z,3.20
2022-11-06T12:15:18.926Z,2.60
2022-11-06T12:17:53.850Z,3.00
2022-11-06T12:20:28.253Z,2.70
2022-11-06T12:22:59.475Z,2.87
2022-11-06T12:25:34.032Z,5.13
2022-11-06T12:28:06.511Z,3.70
2022-11-06T12:30:37.029Z,3.60
2022-11-06T12:33:15.759Z,3.30
2022-11-06T12:35:52.024Z,3.70
2022-11-06T12:38:30.497Z,3.27
2022-11-06T12:41:10.590Z,3.10
2022-11-06T12:43:43.433Z,3.30
2022-11-06T12:46:38.524Z,3.77
2022-11-06T12:49:43.564Z,3.83
2022-11-06T12:52:28.206Z,3.00
2022-11-06T12:55:16.514Z,3.07
2022-11-06T12:58:03.934Z,3.70
2022-11-06T13:00:41.807Z,3.63
2022-11-06T13:03:38.145Z,3.80
2022-11-06T13:09:53.611Z,4.00
2022-11-06T13:12:32.453Z,4.40
2022-11-06T13:15:12.778Z,4.50
2022-11-06T13:17:48.164Z,4.80
2022-11-06T13:20:25.010Z,4.23
2022-11-06T13:23:02.109Z,4.90
2022-11-06T13:25:44.135Z,4.77
2022-11-06T13:28:29.685Z,5.10
2022-11-06T13:31:04.257Z,4.23
2022-11-06T13:33:44.758Z,5.03
2022-11-06T13:36:15.203Z,4.63
2022-11-06T13:38:52.720Z,6.20
2022-11-06T13:41:28.176Z,4.90
2022-11-06T13:44:04.107Z,5.00
2022-11-06T13:46:41.032Z,4.60
2022-11-06T13:49:20.218Z,4.83
2022-11-06T13:51:54.430Z,4.13
2022-11-06T13:54:40.526Z,4.67
2022-11-06T13:57:39.021Z,4.63
2022-11-06T14:00:18.884Z,4.97
2022-11-06T14:03:20.975Z,3.70
2022-11-06T14:05:59.714Z,5.90
2022-11-06T14:08:31.615Z,5.60
2022-11-06T14:11:04.533Z,4.40
2022-11-06T14:13:36.811Z,4.77
2022-11-06T14:16:22.599Z,4.33
2022-11-06T14:18:56.984Z,4.27
2022-11-06T14:21:44.829Z,4.33
2022-11-06T14:24:28.823Z,4.60
2022-11-06T14:27:09.550Z,4.70
2022-11-06T14:29:59.206Z,4.30
2022-11-06T14:32:43.339Z,4.67
2022-11-06T14:35:51.878Z,4.93
2022-11-06T14:38:38.099Z,5.13
2022-11-06T14:41:49.090Z,5.13
2022-11-06T14:44:41.644Z,4.13
2022-11-06T14:47:35.056Z,5.43
2022-11-06T14:50:26.093Z,4.30
2022-11-06T14:52:57.856Z,6.10
2022-11-06T14:55:30.940Z,5.47
2022-11-06T15:01:01.616Z,6.07
2022-11-06T15:03:36.759Z,6.30
2022-11-06T15:06:21.348Z,7.13
2022-11-06T15:09:02.378Z,7.37
2022-11-06T15:11:51.147Z,7.00
2022-11-06T15:14:57.925Z,6.20
2022-11-06T15:17:30.321Z,6.40
2022-11-06T15:20:24.534Z,6.73
2022-11-06T15:23:08.850Z,8.30
2022-11-06T15:25:46.710Z,6.80
2022-11-06T15:28:18.725Z,8.00
2022-11-06T15:30:51.578Z,7.33
2022-11-06T15:33:26.988Z,9.03
2022-11-06T15:36:00.321Z,9.30
2022-11-06T15:38:39.214Z,9.43
2022-11-06T15:41:13.126Z,9.37
2022-11-06T15:43:44.598Z,9.57
2022-11-06T15:46:22.735Z,9.80
2022-11-06T15:49:08.211Z,10.83
2022-11-06T15:51:40.966Z,10.33
2022-11-06T15:54:14.900Z,10.60
2022-11-06T15:56:44.522Z,12.10
2022-11-06T15:59:14.949Z,12.73
2022-11-06T16:01:47.690Z,12.83
2022-11-06T16:04:20.088Z,14.70
2022-11-06T16:06:51.069Z,14.40
2022-11-06T16:09:22.683Z,14.43
2022-11-06T16:11:53.785Z,14.23
2022-11-06T16:14:23.256Z,15.77
2022-11-06T16:16:53.135Z,15.03
2022-11-06T16:19:34.426Z,14.07
2022-11-06T16:22:07.565Z,13.67
2022-11-06T16:24:44.165Z,16.23
2022-11-06T16:27:14.750Z,15.20
2022-11-06T16:29:48.907Z,17.17
2022-11-06T16:32:20.478Z,15.87
2022-11-06T16:34:49.627Z,16.10
2022-11-06T16:37:38.858Z,14.87
2022-11-06T16:40:48.644Z,15.80
2022-11-06T16:43:18.839Z,17.50
2022-11-06T16:45:55.945Z,16.97
2022-11-06T16:48:36.303Z,17.27
2022-11-06T16:51:08.082Z,16.80
2022-11-06T16:53:57.852Z,17.00
2022-11-06T16:56:29.076Z,16.87
2022-11-06T16:59:02.183Z,15.20
2022-11-06T17:01:37.836Z,19.87
2022-11-06T17:04:06.761Z,18.47
2022-11-06T17:06:37.970Z,17.70
2022-11-06T17:09:25.324Z,18.90
2022-11-06T17:11:54.022Z,18.63
2022-11-06T17:14:24.001Z,17.70
2022-11-06T17:16:54.911Z,19.30
2022-11-06T17:19:23.850Z,18.83
2022-11-06T17:21:52.919Z,20.10
2022-11-06T17:24:38.406Z,18.70
2022-11-06T17:27:07.828Z,20.00
2022-11-06T17:29:37.023Z,17.80
2022-11-06T17:32:05.643Z,19.60
2022-11-06T17:34:34.157Z,19.30
2022-11-06T17:37:02.769Z,18.97
2022-11-06T17:39:32.801Z,18.90
2022-11-06T17:42:01.376Z,19.90
2022-11-06T17:44:29.871Z,19.13
2022-11-06T17:46:58.441Z,18.27
2022-11-06T17:49:26.970Z,18.93
2022-11-06T17:51:59.636Z,19.50
2022-11-06T17:54:30.411Z,22.50
2022-11-06T17:57:02.026Z,20.70
2022-11-06T17:59:30.952Z,20.70
2022-11-06T18:02:00.010Z,19.57
2022-11-06T18:04:31.326Z,18.87
2022-11-06T18:06:59.836Z,18.70
2022-11-06T18:09:28.605Z,19.50
2022-11-06T18:12:01.054Z,19.80
2022-11-06T18:14:29.857Z,21.03
2022-11-06T18:16:58.342Z,21.80
2022-11-06T18:19:27.310Z,21.37
2022-11-06T18:21:56.437Z,23.17
2022-11-06T18:24:25.196Z,21.50
2022-11-06T18:26:54.059Z,23.87
2022-11-06T18:29:24.164Z,19.93
2022-11-06T18:31:52.624Z,21.17
2022-11-06T18:34:21.442Z,19.93
2022-11-06T18:36:51.132Z,19.60
2022-11-06T18:39:20.343Z,20.27
2022-11-06T18:41:48.915Z,20.27
2022-11-06T18:44:18.333Z,21.20
2022-11-06T18:46:48.457Z,23.63
2022-11-06T18:49:17.270Z,20.33
2022-11-06T18:51:45.926Z,22.03
2022-11-06T18:54:14.650Z,21.47
2022-11-06T18:56:43.256Z,22.10
2022-11-06T18:59:16.785Z,20.40
2022-11-06T19:01:45.491Z,20.63
2022-11-06T19:04:15.567Z,21.63
2022-11-06T19:06:44.127Z,21.93
2022-11-06T19:09:12.691Z,20.80
2022-11-06T19:11:41.269Z,21.70
2022-11-06T19:14:09.725Z,21.03
2022-11-06T19:16:38.377Z,21.20
2022-11-06T19:19:08.384Z,19.50
2022-11-06T19:21:40.417Z,20.77
2022-11-06T19:24:19.609Z,19.87
2022-11-06T19:26:51.633Z,21.07
2022-11-06T19:29:20.255Z,21.60
2022-11-06T19:31:48.781Z,21.27
2022-11-06T19:34:17.726Z,20.00
2022-11-06T19:36:47.748Z,23.73
2022-11-06T19:39:16.489Z,19.57
2022-11-06T19:41:45.075Z,22.00
2022-11-06T19:44:13.695Z,22.10
2022-11-06T19:46:42.569Z,20.47
2022-11-06T19:49:11.732Z,20.97
2022-11-06T19:51:41.067Z,23.70
2022-11-06T19:54:11.193Z,29.50
2022-11-06T19:57:29.286Z,24.47
2022-11-06T19:59:28.217Z,23.70
2022-11-06T20:01:56.894Z,22.70
2022-11-06T20:04:25.438Z,22.13
2022-11-06T20:06:53.911Z,21.10
2022-11-06T20:09:23.751Z,20.40
2022-11-06T20:11:53.141Z,20.10
2022-11-06T20:14:22.066Z,20.07
2022-11-06T20:16:50.682Z,22.67
2022-11-06T20:19:19.347Z,21.10
2022-11-06T20:21:47.840Z,22.50
2022-11-06T20:24:16.363Z,22.40
2022-11-06T20:26:46.325Z,23.73
2022-11-06T20:29:15.071Z,23.97
2022-11-06T20:31:43.880Z,22.90
2022-11-06T20:34:12.455Z,23.30
2022-11-06T20:36:40.912Z,22.93
2022-11-06T20:39:09.658Z,24.63
2022-11-06T20:41:38.126Z,24.57
2022-11-06T20:44:07.990Z,24.47
2022-11-06T20:46:36.562Z,23.10
2022-11-06T20:49:05.130Z,26.23
2022-11-06T20:51:42.982Z,24.87
2022-11-06T20:54:22.130Z,23.93
2022-11-06T20:56:51.037Z,21.50
2022-11-06T20:59:21.056Z,23.37
2022-11-06T21:01:49.588Z,23.47
2022-11-06T21:04:18.754Z,22.03
2022-11-06T21:06:47.219Z,22.00
2022-11-06T21:09:16.668Z,23.90
2022-11-06T21:11:45.202Z,22.53
2022-11-06T21:14:13.659Z,24.27
2022-11-06T21:16:43.556Z,21.60
2022-11-06T21:19:12.220Z,21.37
2022-11-06T21:21:40.929Z,19.87
2022-11-06T21:24:10.100Z,21.93
2022-11-06T21:26:39.486Z,22.27
2022-11-06T21:29:10.596Z,21.87
2022-11-06T21:31:45.711Z,20.30
2022-11-06T21:34:20.046Z,21.10
2022-11-06T21:36:48.811Z,21.67
2022-11-06T21:39:20.251Z,21.63
2022-11-06T21:41:49.190Z,22.70
2022-11-06T21:44:26.127Z,24.20
2022-11-06T21:46:54.824Z,19.43
2022-11-06T21:49:24.968Z,22.30
2022-11-06T21:51:54.245Z,20.70
2022-11-06T21:54:40.794Z,23.07
2022-11-06T21:57:09.577Z,20.80
2022-11-06T21:59:41.659Z,21.47
2022-11-06T22:02:11.610Z,21.23
2022-11-06T22:04:41.944Z,20.30
2022-11-06T22:07:10.927Z,20.10
2022-11-06T22:09:39.871Z,21.57
2022-11-06T22:14:52.429Z,20.47
2022-11-06T22:17:21.539Z,21.50
2022-11-06T22:19:52.182Z,18.67
2022-11-06T22:22:20.887Z,19.70
2022-11-06T22:24:49.998Z,16.60
2022-11-06T22:27:18.896Z,19.60
2022-11-06T22:29:49.980Z,16.87
2022-11-06T22:32:18.850Z,19.17
2022-11-06T22:34:48.003Z,19.87
2022-11-06T22:37:18.218Z,20.40
2022-11-06T22:39:49.657Z,19.27
2022-11-06T22:42:18.492Z,17.50
2022-11-06T22:44:48.462Z,18.60
2022-11-06T22:47:19.903Z,17.00
2022-11-06T22:49:48.798Z,17.23
2022-11-06T22:52:21.394Z,17.27
2022-11-06T22:54:50.085Z,17.63
2022-11-06T22:58:13.193Z,17.27
2022-11-06T23:00:41.871Z,16.80
2022-11-06T23:03:10.566Z,17.63
2022-11-06T23:05:41.993Z,16.77
2022-11-06T23:08:12.188Z,18.03
2022-11-06T23:10:42.348Z,17.83
2022-11-06T23:13:11.581Z,17.00
2022-11-06T23:15:40.272Z,18.87
2022-11-06T23:18:08.917Z,17.83
2022-11-06T23:20:37.473Z,17.37
2022-11-06T23:23:06.382Z,16.60
2022-11-06T23:25:36.546Z,15.87
2022-11-06T23:28:08.309Z,18.97
2022-11-06T23:30:36.771Z,15.40
2022-11-06T23:33:07.331Z,16.43
2022-11-06T23:35:36.124Z,18.10
2022-11-06T23:38:04.850Z,17.50
2022-11-06T23:40:33.417Z,18.47
2022-11-06T23:43:04.104Z,16.37
2022-11-06T23:45:49.663Z,18.37
2022-11-06T23:48:18.666Z,13.77
2022-11-06T23:50:47.901Z,14.60
2022-11-06T23:53:17.811Z,16.23
2022-11-06T23:55:47.083Z,15.50
2022-11-06T23:58:17.352Z,14.50
